Terminal Aerodrome Forecast
Issued by NWS

Home | Current Version | Previous Version | Text Only | Print | Product List | Glossary On
Versions: 1 2 3 4 5 6 7 8 9 10 11 12 13 14 15 16 17 18
000
FTUS46 KMTR 181100
TAFMRY
TAF
KMRY 181136Z 1812/1912 22007KT P6SM OVC010
     FM181600 25008KT P6SM OVC015
     FM182100 26015KT P6SM FEW015 OVC020
     FM190100 24010KT P6SM OVC010=

USA.gov is the U.S. government's official web portal to all federal, state and local government web resources and services.